Time;durP1;ratioP1;P1;durP2;ratioP2;P2;SDS_P1;SDS_P2;PMS_P1;PMS_P2;Temp;Humidity;BMP_temperature;BMP_pressure;BME280_temperature;BME280_humidity;BME280_pressure;Samples;Min_cycle;Max_cycle;Signal;HPM_P1;HPM_P2
2021/05/03 00:00:00;;;;;;;29.00;16.58;;;14.40;99.90;;;;;;5095041;28;20095;-68
2021/05/03 00:02:26;;;;;;;32.33;16.40;;;14.40;99.90;;;;;;5090229;28;20048;-69
2021/05/03 00:04:52;;;;;;;26.67;16.83;;;14.40;99.90;;;;;;5092818;28;20012;-68
2021/05/03 00:07:18;;;;;;;36.90;17.38;;;14.40;99.90;;;;;;5083810;28;20016;-69
2021/05/03 00:09:43;;;;;;;33.85;16.65;;;14.40;99.90;;;;;;5091998;28;20478;-69
2021/05/03 00:12:09;;;;;;;33.70;18.25;;;14.40;99.90;;;;;;5094772;28;20474;-69
2021/05/03 00:14:35;;;;;;;26.05;15.57;;;14.40;99.90;;;;;;5079528;28;20107;-69
2021/05/03 00:17:01;;;;;;;34.05;17.30;;;14.40;99.90;;;;;;5089938;28;20443;-69
2021/05/03 00:19:27;;;;;;;25.75;15.77;;;14.40;99.90;;;;;;5086439;28;20035;-69
2021/05/03 00:21:52;;;;;;;26.80;14.30;;;14.40;99.90;;;;;;5075092;28;20017;-69
2021/05/03 00:24:18;;;;;;;30.30;15.48;;;14.50;99.90;;;;;;5084366;28;20365;-69
2021/05/03 00:26:44;;;;;;;28.75;15.88;;;14.40;99.90;;;;;;5094257;28;20028;-69
2021/05/03 00:29:09;;;;;;;32.13;16.83;;;14.40;99.90;;;;;;5085525;28;20029;-69
2021/05/03 00:31:36;;;;;;;34.10;17.08;;;14.40;99.90;;;;;;5088108;28;20374;-68
2021/05/03 00:34:01;;;;;;;31.90;17.08;;;14.40;99.90;;;;;;5090488;28;20058;-69
2021/05/03 00:36:27;;;;;;;32.03;16.98;;;14.50;99.90;;;;;;5093596;28;20462;-68
2021/05/03 00:38:52;;;;;;;31.45;16.85;;;14.50;99.90;;;;;;5092997;28;20027;-68
2021/05/03 00:41:18;;;;;;;30.98;17.92;;;14.50;99.90;;;;;;5094274;28;20028;-68
2021/05/03 00:43:44;;;;;;;29.25;17.40;;;14.40;99.90;;;;;;5094789;28;20094;-69
2021/05/03 00:46:10;;;;;;;30.75;17.58;;;14.50;99.90;;;;;;5092785;28;20016;-69
2021/05/03 00:48:36;;;;;;;33.72;17.80;;;14.40;99.90;;;;;;5092732;28;20024;-69
2021/05/03 00:51:02;;;;;;;28.05;15.40;;;14.40;99.90;;;;;;5092480;28;20016;-69
2021/05/03 00:53:27;;;;;;;34.30;16.92;;;14.40;99.90;;;;;;5094308;28;20020;-68
2021/05/03 00:55:53;;;;;;;32.03;16.17;;;14.40;99.90;;;;;;5093206;28;20020;-69
2021/05/03 00:58:19;;;;;;;34.03;17.42;;;14.40;99.90;;;;;;5093698;28;20374;-69
2021/05/03 01:00:44;;;;;;;45.67;20.67;;;14.30;99.90;;;;;;5093698;28;20074;-69
2021/05/03 01:03:10;;;;;;;46.72;20.55;;;14.30;99.90;;;;;;5093731;28;20020;-69
2021/05/03 01:05:36;;;;;;;63.60;22.00;;;14.30;99.90;;;;;;5092720;28;20024;-69
2021/05/03 01:08:03;;;;;;;112.03;33.58;;;14.20;99.90;;;;;;5092258;28;20028;-69
2021/05/03 01:10:30;;;;;;;143.73;38.30;;;14.20;99.90;;;;;;5093711;28;20126;-69
2021/05/03 01:12:57;;;;;;;197.15;47.28;;;14.20;99.90;;;;;;5092328;28;20493;-69
2021/05/03 01:15:24;;;;;;;155.35;40.22;;;14.30;99.90;;;;;;5093834;28;20404;-69
2021/05/03 01:18:01;;;;;;;185.75;45.53;;;14.20;99.90;;;;;;5092345;28;20028;-69
2021/05/03 01:20:36;;;;;;;149.80;37.30;;;14.20;99.90;;;;;;5091784;28;20385;-70
2021/05/03 01:23:03;;;;;;;90.68;30.15;;;14.20;99.90;;;;;;5093947;28;20016;-70
2021/05/03 01:25:32;;;;;;;111.03;34.30;;;14.20;99.90;;;;;;5092493;28;20511;-70
2021/05/03 01:27:59;;;;;;;135.88;37.28;;;14.20;99.90;;;;;;5092229;28;20024;-69
2021/05/03 01:30:33;;;;;;;113.38;34.85;;;14.20;99.90;;;;;;5093089;28;20077;-70
2021/05/03 01:33:00;;;;;;;153.10;40.95;;;14.20;99.90;;;;;;5092271;28;20056;-69
2021/05/03 01:35:26;;;;;;;185.90;47.08;;;14.20;99.90;;;;;;5093150;28;20024;-69
2021/05/03 01:37:55;;;;;;;266.65;56.65;;;14.20;99.90;;;;;;5092180;28;20437;-69
2021/05/03 01:40:22;;;;;;;177.82;46.13;;;14.20;99.90;;;;;;5092135;28;20053;-69
2021/05/03 01:42:49;;;;;;;52.80;24.95;;;14.20;99.90;;;;;;5091449;28;20048;-69
2021/05/03 01:45:18;;;;;;;47.45;22.98;;;14.20;99.90;;;;;;5091984;28;20381;-69
2021/05/03 01:47:44;;;;;;;44.83;22.48;;;14.20;99.90;;;;;;5091348;28;20521;-69
2021/05/03 01:50:10;;;;;;;38.55;22.67;;;14.20;99.90;;;;;;5093487;28;20020;-69
2021/05/03 01:52:37;;;;;;;35.80;21.90;;;14.20;99.90;;;;;;5093026;28;20100;-69
2021/05/03 01:55:04;;;;;;;43.40;23.65;;;14.20;99.90;;;;;;5093320;28;20019;-69
2021/05/03 01:57:30;;;;;;;39.03;22.88;;;14.20;99.90;;;;;;5093157;28;20031;-69
2021/05/03 01:59:57;;;;;;;39.35;21.98;;;14.20;99.90;;;;;;5093059;28;20020;-69
2021/05/03 02:02:22;;;;;;;38.10;21.80;;;14.20;99.90;;;;;;5093354;28;20390;-69
2021/05/03 02:04:48;;;;;;;42.83;21.00;;;14.10;99.90;;;;;;5092687;28;20020;-69
2021/05/03 02:07:15;;;;;;;45.22;23.42;;;14.10;99.90;;;;;;5091879;28;20446;-69
2021/05/03 02:09:45;;;;;;;71.30;28.27;;;14.10;99.90;;;;;;5093043;28;20031;-69
2021/05/03 02:12:11;;;;;;;88.93;30.58;;;14.10;99.90;;;;;;5092925;28;20121;-69
2021/05/03 02:14:42;;;;;;;84.32;29.67;;;14.10;99.90;;;;;;5091599;28;20051;-69
2021/05/03 02:17:08;;;;;;;83.05;29.35;;;14.10;99.90;;;;;;5092229;28;20016;-69
2021/05/03 02:19:34;;;;;;;83.65;29.08;;;14.10;99.90;;;;;;5093046;28;20020;-69
2021/05/03 02:22:00;;;;;;;53.47;24.48;;;14.00;99.90;;;;;;5092761;28;20472;-69
2021/05/03 02:24:26;;;;;;;48.55;24.50;;;14.00;99.90;;;;;;5091543;28;20028;-69
2021/05/03 02:26:53;;;;;;;46.15;24.63;;;14.00;99.90;;;;;;5092925;28;20070;-69
2021/05/03 02:29:18;;;;;;;43.45;22.38;;;14.00;99.90;;;;;;5091699;28;20064;-69
2021/05/03 02:31:44;;;;;;;38.80;22.65;;;14.00;99.90;;;;;;5092889;28;20047;-69
2021/05/03 02:34:10;;;;;;;41.22;22.60;;;14.00;99.90;;;;;;5093163;28;20392;-69
2021/05/03 02:36:35;;;;;;;41.00;22.73;;;14.00;99.90;;;;;;5092569;28;20027;-69
2021/05/03 02:39:01;;;;;;;39.38;21.73;;;14.00;99.90;;;;;;5091451;28;20016;-69
2021/05/03 02:41:27;;;;;;;38.05;20.85;;;14.00;99.90;;;;;;5091387;28;20024;-69
2021/05/03 02:43:53;;;;;;;40.42;22.02;;;14.00;99.90;;;;;;5093025;28;20035;-69
2021/05/03 02:46:19;;;;;;;35.15;19.73;;;14.00;99.90;;;;;;5091486;28;20024;-69
2021/05/03 02:48:44;;;;;;;34.85;19.80;;;14.00;99.90;;;;;;5092669;28;20462;-69
2021/05/03 02:51:10;;;;;;;36.45;19.67;;;14.00;99.90;;;;;;5091200;28;20024;-69
2021/05/03 02:53:36;;;;;;;30.00;19.65;;;14.10;99.90;;;;;;5092723;28;20020;-69
2021/05/03 02:56:01;;;;;;;35.78;19.60;;;14.10;99.90;;;;;;5091152;28;20016;-70
2021/05/03 02:58:27;;;;;;;33.75;19.50;;;14.10;99.90;;;;;;5092211;28;20060;-69
2021/05/03 03:00:53;;;;;;;34.75;19.15;;;14.10;99.90;;;;;;5094458;28;20070;-69
2021/05/03 03:03:19;;;;;;;31.10;18.25;;;14.20;99.90;;;;;;5096101;28;20055;-69
2021/05/03 03:05:44;;;;;;;33.67;17.48;;;14.20;99.90;;;;;;5096486;28;20077;-69
2021/05/03 03:08:10;;;;;;;33.72;19.08;;;14.20;99.90;;;;;;5096107;28;20544;-69
2021/05/03 03:10:35;;;;;;;36.35;18.33;;;14.30;99.90;;;;;;5095859;28;20055;-69
2021/05/03 03:13:03;;;;;;;38.83;19.48;;;14.30;99.90;;;;;;5095512;28;20044;-70
2021/05/03 03:15:31;;;;;;;32.65;18.38;;;14.30;99.90;;;;;;5094915;28;20115;-69
2021/05/03 03:17:57;;;;;;;37.05;18.60;;;14.30;99.90;;;;;;5094450;28;20028;-70
2021/05/03 03:20:23;;;;;;;32.50;18.75;;;14.40;99.90;;;;;;5095818;28;20024;-69
2021/05/03 03:22:49;;;;;;;33.78;17.88;;;14.40;99.90;;;;;;5094358;28;20024;-69
2021/05/03 03:25:17;;;;;;;32.85;18.35;;;14.50;99.90;;;;;;5094189;28;20107;-69
2021/05/03 03:27:43;;;;;;;39.38;18.17;;;14.50;99.90;;;;;;5094596;28;20035;-69
2021/05/03 03:30:11;;;;;;;29.25;16.85;;;14.60;99.90;;;;;;5095897;28;20027;-70
2021/05/03 03:32:43;;;;;;;36.78;17.30;;;14.70;99.90;;;;;;5094043;28;20026;-70
2021/05/03 03:35:11;;;;;;;29.63;17.08;;;14.80;99.90;;;;;;5095567;28;20044;-70
2021/05/03 03:37:37;;;;;;;32.42;16.75;;;14.80;99.90;;;;;;5094230;28;20370;-70
2021/05/03 03:40:04;;;;;;;31.08;16.77;;;14.90;99.90;;;;;;5095245;28;20034;-71
2021/05/03 03:42:30;;;;;;;31.45;17.75;;;14.90;99.90;;;;;;5093908;28;20077;-70
2021/05/03 03:44:57;;;;;;;32.42;18.67;;;15.00;99.90;;;;;;5095142;28;20016;-70
2021/05/03 03:47:23;;;;;;;31.02;19.00;;;15.00;99.90;;;;;;5095226;28;20094;-70
2021/05/03 03:49:49;;;;;;;29.30;19.55;;;15.00;99.90;;;;;;5095374;28;20095;-70
2021/05/03 03:52:14;;;;;;;31.48;19.85;;;15.00;99.90;;;;;;5095178;28;20027;-70
2021/05/03 03:54:40;;;;;;;39.33;20.70;;;15.10;99.90;;;;;;5094702;28;20063;-70
2021/05/03 03:57:06;;;;;;;32.63;19.38;;;15.20;99.90;;;;;;5093913;28;20059;-70
2021/05/03 03:59:35;;;;;;;34.03;17.92;;;15.30;99.90;;;;;;5094792;28;20024;-70
2021/05/03 04:02:00;;;;;;;30.95;18.17;;;15.40;99.90;;;;;;5095274;28;20396;-70
2021/05/03 04:04:29;;;;;;;23.30;15.48;;;15.60;99.90;;;;;;5094455;28;20020;-70
2021/05/03 04:12:17;;;;;;;27.77;14.80;;;16.50;99.90;;;;;;5094107;28;20031;-70
2021/05/03 04:27:53;;;;;;;16.98;11.27;;;18.20;99.60;;;;;;5094833;28;20020;-70
2021/05/03 04:30:19;;;;;;;19.42;10.00;;;18.50;99.10;;;;;;5094551;28;20020;-71
2021/05/03 04:32:45;;;;;;;19.20;10.35;;;19.00;99.00;;;;;;5094337;28;20024;-70
2021/05/03 04:35:10;;;;;;;16.88;10.70;;;19.50;98.30;;;;;;5093073;28;20022;-70
2021/05/03 04:37:36;;;;;;;19.70;10.07;;;19.90;96.60;;;;;;5092967;28;20419;-70
2021/05/03 04:40:03;;;;;;;17.05;9.07;;;20.20;94.50;;;;;;5094556;28;20028;-70
2021/05/03 04:42:28;;;;;;;13.25;7.65;;;20.30;92.60;;;;;;5089910;28;20089;-71
2021/05/03 04:44:54;;;;;;;13.80;6.93;;;20.40;91.50;;;;;;5092842;28;20421;-70
2021/05/03 04:47:20;;;;;;;12.82;6.82;;;20.50;90.40;;;;;;5094075;28;20020;-70
2021/05/03 04:49:46;;;;;;;9.50;6.13;;;20.60;88.20;;;;;;5094230;28;20018;-69
2021/05/03 04:52:12;;;;;;;11.48;6.57;;;20.60;86.20;;;;;;5094233;28;20103;-70
2021/05/03 04:54:37;;;;;;;13.38;8.15;;;20.50;84.10;;;;;;5093788;28;20095;-70
2021/05/03 04:57:03;;;;;;;9.52;5.78;;;20.50;83.60;;;;;;5093830;28;20024;-70
2021/05/03 04:59:29;;;;;;;11.63;5.80;;;20.60;81.80;;;;;;5092535;28;20028;-70
2021/05/03 05:01:55;;;;;;;10.90;5.45;;;20.80;81.00;;;;;;5094065;28;20043;-70
2021/05/03 05:04:20;;;;;;;10.27;5.72;;;21.00;79.30;;;;;;5093799;28;20028;-70
2021/05/03 05:06:46;;;;;;;7.75;4.90;;;21.10;76.80;;;;;;5092511;28;20020;-70
2021/05/03 05:09:11;;;;;;;8.07;4.63;;;21.10;75.00;;;;;;5093840;28;20024;-69
2021/05/03 05:11:37;;;;;;;9.75;5.03;;;21.00;73.50;;;;;;5092145;28;20026;-70
2021/05/03 05:14:03;;;;;;;7.38;4.97;;;21.00;72.90;;;;;;5094012;28;20040;-69
2021/05/03 05:16:29;;;;;;;6.80;4.35;;;21.00;72.20;;;;;;5092010;28;20031;-69
2021/05/03 05:18:55;;;;;;;7.28;4.50;;;21.00;71.70;;;;;;5093728;28;20032;-69
2021/05/03 05:21:22;;;;;;;8.30;4.70;;;21.10;71.20;;;;;;5092106;28;20044;-69
2021/05/03 05:23:48;;;;;;;7.90;4.95;;;21.00;70.40;;;;;;5092262;28;20442;-69
2021/05/03 05:26:15;;;;;;;7.57;4.40;;;20.90;69.70;;;;;;5093421;28;20026;-69
2021/05/03 05:28:40;;;;;;;13.20;5.15;;;20.70;69.70;;;;;;5093170;28;20089;-71
2021/05/03 05:31:06;;;;;;;6.82;4.72;;;20.60;69.50;;;;;;5093509;28;20024;-70
2021/05/03 05:33:32;;;;;;;8.98;4.50;;;20.40;69.40;;;;;;5093250;28;20046;-70
2021/05/03 05:35:58;;;;;;;6.30;4.43;;;20.20;69.60;;;;;;5093448;28;20024;-71
2021/05/03 05:38:23;;;;;;;9.13;4.43;;;20.00;69.70;;;;;;5092001;28;20031;-70
2021/05/03 05:40:49;;;;;;;6.78;4.10;;;19.90;70.00;;;;;;5093078;28;20048;-71
2021/05/03 05:43:15;;;;;;;6.00;4.00;;;19.90;70.00;;;;;;5093246;28;20020;-71
2021/05/03 05:45:41;;;;;;;6.38;3.92;;;19.80;69.50;;;;;;5093212;28;20069;-71
2021/05/03 05:48:07;;;;;;;10.15;4.32;;;19.90;69.70;;;;;;5093252;28;20027;-71
2021/05/03 05:50:33;;;;;;;7.35;4.47;;;20.00;69.40;;;;;;5091773;28;20027;-70
2021/05/03 05:52:59;;;;;;;6.53;3.55;;;20.20;68.50;;;;;;5091595;28;20055;-70
2021/05/03 05:55:25;;;;;;;5.70;3.50;;;20.30;67.80;;;;;;5093051;28;20043;-70
2021/05/03 05:57:51;;;;;;;6.15;3.47;;;20.40;67.30;;;;;;5091830;28;20085;-69
2021/05/03 06:00:17;;;;;;;7.50;3.85;;;20.50;67.30;;;;;;5093370;28;20123;-69
2021/05/03 06:02:43;;;;;;;7.95;4.05;;;20.70;66.60;;;;;;5092891;28;20034;-70
2021/05/03 06:05:10;;;;;;;6.20;4.13;;;20.60;66.30;;;;;;5093055;28;20024;-70
2021/05/03 06:07:36;;;;;;;5.97;3.45;;;20.50;65.90;;;;;;5093178;28;20085;-69
2021/05/03 06:10:02;;;;;;;5.78;3.38;;;20.30;65.30;;;;;;5091498;28;20020;-70
2021/05/03 06:12:28;;;;;;;5.65;3.53;;;20.00;65.00;;;;;;5093074;28;20492;-70
2021/05/03 06:14:53;;;;;;;6.80;4.10;;;19.80;65.40;;;;;;5091688;28;20020;-70
2021/05/03 06:17:20;;;;;;;9.27;3.90;;;19.50;65.60;;;;;;5093011;28;20056;-70
2021/05/03 06:19:46;;;;;;;7.35;4.38;;;19.30;66.30;;;;;;5092880;28;20016;-69
2021/05/03 06:22:12;;;;;;;11.77;4.70;;;19.00;66.80;;;;;;5092935;28;20020;-70
2021/05/03 06:24:38;;;;;;;7.97;4.78;;;18.70;67.30;;;;;;5091360;28;20114;-70
2021/05/03 06:27:04;;;;;;;8.68;4.43;;;18.50;68.20;;;;;;5091461;28;20048;-69
2021/05/03 06:29:30;;;;;;;7.60;4.63;;;18.40;69.00;;;;;;5091608;28;20039;-69
2021/05/03 06:31:58;;;;;;;8.80;4.63;;;18.20;69.50;;;;;;5092839;28;20490;-70
2021/05/03 06:34:27;;;;;;;6.50;4.40;;;18.10;70.10;;;;;;5093411;28;20016;-70
2021/05/03 06:36:52;;;;;;;10.35;5.07;;;18.00;70.70;;;;;;5094618;28;20020;-70
2021/05/03 06:39:18;;;;;;;12.40;5.60;;;17.80;71.20;;;;;;5096924;28;20454;-68
2021/05/03 06:41:45;;;;;;;8.25;4.85;;;17.70;71.90;;;;;;5096700;28;20458;-69
2021/05/03 06:44:11;;;;;;;12.18;6.97;;;17.60;72.60;;;;;;5095091;28;20031;-69
2021/05/03 06:46:37;;;;;;;10.90;6.32;;;17.60;73.30;;;;;;5094991;28;20016;-70
2021/05/03 06:49:03;;;;;;;9.93;6.45;;;17.50;73.90;;;;;;5094863;28;20032;-70
2021/05/03 06:51:29;;;;;;;8.35;5.28;;;17.50;74.40;;;;;;5094972;28;20035;-70
2021/05/03 06:53:54;;;;;;;14.65;5.40;;;17.50;74.70;;;;;;5095423;28;20450;-70
2021/05/03 06:56:20;;;;;;;8.15;4.93;;;17.50;75.70;;;;;;5096091;28;20099;-70
2021/05/03 06:58:46;;;;;;;8.38;5.13;;;17.50;75.20;;;;;;5094833;28;20037;-70
2021/05/03 07:01:13;;;;;;;9.07;4.70;;;17.40;75.40;;;;;;5096068;28;20091;-69
2021/05/03 07:03:40;;;;;;;8.57;5.00;;;17.40;75.40;;;;;;5096316;28;20365;-70
2021/05/03 07:06:06;;;;;;;10.65;6.40;;;17.40;75.70;;;;;;5095888;28;20465;-70
2021/05/03 07:08:31;;;;;;;8.52;5.65;;;17.50;75.80;;;;;;5096251;28;20044;-70
2021/05/03 07:10:58;;;;;;;8.32;4.70;;;17.60;75.50;;;;;;5094896;28;20020;-70
2021/05/03 07:13:24;;;;;;;7.65;5.38;;;17.70;75.40;;;;;;5094310;28;20051;-70
2021/05/03 07:15:50;;;;;;;6.93;4.00;;;17.90;74.80;;;;;;5095739;28;20024;-70
2021/05/03 07:18:16;;;;;;;14.65;5.75;;;18.00;74.60;;;;;;5094202;28;20036;-71
2021/05/03 07:20:41;;;;;;;7.05;4.10;;;18.30;74.40;;;;;;5094164;28;20465;-69
2021/05/03 07:23:08;;;;;;;6.47;4.40;;;18.60;73.10;;;;;;5094902;28;20020;-71
2021/05/03 07:25:34;;;;;;;5.30;3.67;;;18.90;72.80;;;;;;5096166;28;20024;-71
2021/05/03 07:28:00;;;;;;;5.82;4.00;;;19.40;71.80;;;;;;5095708;28;20414;-71
2021/05/03 07:30:25;;;;;;;6.07;3.33;;;19.80;70.60;;;;;;5095297;28;20482;-72
2021/05/03 07:32:51;;;;;;;4.07;2.70;;;20.30;70.10;;;;;;5094311;28;20065;-71
2021/05/03 07:35:17;;;;;;;4.10;2.83;;;20.60;67.40;;;;;;5093965;28;20098;-69
2021/05/03 07:37:42;;;;;;;4.38;3.00;;;20.90;65.80;;;;;;5095933;28;20024;-69
2021/05/03 07:40:09;;;;;;;5.97;3.28;;;21.30;64.60;;;;;;5095307;28;20032;-69
2021/05/03 07:42:35;;;;;;;4.80;3.08;;;21.60;63.10;;;;;;5094016;28;20016;-69
2021/05/03 07:45:00;;;;;;;7.43;4.68;;;21.90;61.90;;;;;;5095104;28;20020;-69
2021/05/03 07:47:27;;;;;;;7.28;3.05;;;22.10;60.80;;;;;;5093866;28;20505;-70
2021/05/03 07:49:53;;;;;;;5.18;2.70;;;22.30;59.30;;;;;;5095221;28;20103;-70
2021/05/03 07:52:19;;;;;;;4.38;2.15;;;22.30;58.20;;;;;;5094170;28;20044;-70
2021/05/03 07:54:45;;;;;;;5.15;2.83;;;22.20;57.80;;;;;;5095250;28;20016;-70
2021/05/03 07:57:11;;;;;;;3.50;2.40;;;22.20;57.40;;;;;;5095328;28;20055;-70
2021/05/03 07:59:36;;;;;;;3.58;2.38;;;22.30;57.00;;;;;;5094903;28;20026;-70
2021/05/03 08:02:02;;;;;;;4.28;2.17;;;22.50;56.80;;;;;;5095024;28;20062;-70
2021/05/03 08:04:28;;;;;;;3.88;2.00;;;22.70;55.30;;;;;;5094477;28;20020;-70
2021/05/03 08:06:57;;;;;;;5.28;2.70;;;22.90;54.60;;;;;;5094352;28;20374;-70
2021/05/03 08:09:25;;;;;;;3.53;2.00;;;23.70;55.30;;;;;;5095048;28;20102;-70
2021/05/03 08:11:51;;;;;;;4.30;1.80;;;24.70;53.80;;;;;;5093453;28;20017;-70
2021/05/03 08:14:19;;;;;;;4.68;1.92;;;25.70;51.90;;;;;;5093454;28;20081;-70
2021/05/03 08:16:49;;;;;;;3.33;1.70;;;26.70;50.60;;;;;;5092976;28;20020;-70
2021/05/03 08:19:15;;;;;;;3.25;1.92;;;27.20;48.50;;;;;;5093085;28;20026;-70
2021/05/03 08:21:40;;;;;;;3.45;1.80;;;26.70;45.80;;;;;;5092974;28;20054;-70
2021/05/03 08:24:06;;;;;;;4.05;1.90;;;26.10;45.90;;;;;;5094696;28;20438;-69
2021/05/03 08:26:32;;;;;;;3.33;1.90;;;26.20;46.90;;;;;;5093940;28;20032;-70
2021/05/03 08:28:58;;;;;;;3.28;1.60;;;26.50;47.00;;;;;;5094492;28;20024;-70
2021/05/03 08:31:24;;;;;;;4.47;2.30;;;27.00;46.40;;;;;;5093344;28;20046;-71
2021/05/03 08:33:50;;;;;;;3.22;2.35;;;27.30;45.70;;;;;;5093001;28;20498;-70
2021/05/03 08:36:15;;;;;;;3.35;2.08;;;27.50;45.40;;;;;;5094155;28;20035;-70
2021/05/03 08:38:41;;;;;;;3.35;2.15;;;27.70;45.40;;;;;;5092421;28;20063;-70
2021/05/03 08:41:07;;;;;;;4.03;2.08;;;27.80;45.20;;;;;;5094107;28;20028;-70
2021/05/03 08:43:39;;;;;;;6.55;2.20;;;27.90;45.20;;;;;;5094224;28;20476;-70
2021/05/03 08:46:04;;;;;;;3.67;1.90;;;27.80;44.30;;;;;;5093860;28;20107;-70
2021/05/03 08:51:18;;;;;;;3.38;1.98;;;27.30;43.90;;;;;;5094000;28;20065;-70
2021/05/03 08:53:53;;;;;;;3.03;2.17;;;27.10;44.20;;;;;;5092780;28;20024;-70
2021/05/03 08:56:19;;;;;;;4.47;2.30;;;26.90;44.60;;;;;;5094193;28;20480;-70
2021/05/03 08:58:44;;;;;;;3.72;2.10;;;26.80;45.20;;;;;;5093114;28;20036;-70
2021/05/03 09:01:10;;;;;;;3.22;2.03;;;26.80;45.40;;;;;;5093644;28;20030;-70
2021/05/03 09:03:40;;;;;;;4.57;2.08;;;27.10;45.50;;;;;;5094102;28;20024;-70
2021/05/03 09:06:11;;;;;;;3.67;1.75;;;27.30;45.00;;;;;;5092489;28;20045;-70
2021/05/03 09:08:37;;;;;;;5.40;1.80;;;27.70;44.10;;;;;;5093947;28;20074;-70
2021/05/03 09:11:02;;;;;;;3.10;1.85;;;27.70;43.10;;;;;;5093777;28;20466;-70
2021/05/03 09:13:31;;;;;;;6.45;1.98;;;27.20;42.40;;;;;;5092270;28;20481;-70
2021/05/03 09:16:22;;;;;;;4.40;2.60;;;26.90;42.80;;;;;;5093686;28;20024;-70
2021/05/03 09:18:48;;;;;;;3.60;1.92;;;27.30;44.10;;;;;;5080426;28;20026;-70
2021/05/03 09:21:29;;;;;;;3.00;2.00;;;27.90;43.90;;;;;;5093551;28;20064;-70
2021/05/03 09:24:01;;;;;;;2.50;1.98;;;28.00;42.60;;;;;;5079932;28;20024;-70
2021/05/03 09:26:42;;;;;;;4.55;2.10;;;27.90;42.70;;;;;;5093330;28;20099;-70
2021/05/03 09:29:36;;;;;;;2.63;1.83;;;28.00;42.70;;;;;;5092076;28;20036;-70
2021/05/03 09:32:07;;;;;;;2.65;1.70;;;28.40;42.60;;;;;;5093062;28;20016;-70
2021/05/03 09:34:46;;;;;;;2.85;1.70;;;28.70;42.20;;;;;;5093511;28;20031;-70
2021/05/03 09:37:19;;;;;;;2.55;1.60;;;29.20;42.30;;;;;;5092161;28;20016;-70
2021/05/03 09:40:06;;;;;;;3.42;1.80;;;29.80;41.30;;;;;;5093299;28;20024;-71
2021/05/03 09:43:07;;;;;;;4.88;2.00;;;30.00;41.60;;;;;;5081520;28;20480;-70
2021/05/03 09:45:33;;;;;;;3.35;1.80;;;30.70;41.00;;;;;;5027811;28;20341;-70
2021/05/03 09:48:00;;;;;;;2.22;1.50;;;31.00;40.20;;;;;;5075199;28;20028;-71
2021/05/03 09:50:30;;;;;;;1.70;1.60;;;31.10;39.40;;;;;;5092671;28;20413;-70
2021/05/03 09:53:09;;;;;;;2.50;1.75;;;30.90;38.50;;;;;;5091178;28;20112;-71
2021/05/03 09:55:39;;;;;;;4.32;1.80;;;30.00;38.40;;;;;;5093025;28;20100;-71
2021/05/03 09:58:06;;;;;;;3.70;1.70;;;29.20;39.10;;;;;;5091765;28;20123;-70
2021/05/03 10:00:38;;;;;;;3.45;2.20;;;28.50;39.90;;;;;;5091633;28;20458;-70
2021/05/03 10:03:46;;;;;;;6.13;1.88;;;28.30;40.70;;;;;;5091630;28;20472;-70
2021/05/03 10:06:14;;;;;;;4.35;2.05;;;28.20;41.40;;;;;;5091721;28;20031;-70
2021/05/03 10:08:43;;;;;;;3.90;2.30;;;27.90;40.90;;;;;;5093076;28;20028;-70
2021/05/03 10:11:10;;;;;;;3.35;2.10;;;27.30;40.70;;;;;;5096652;28;20034;-71
2021/05/03 10:13:41;;;;;;;3.80;1.83;;;26.90;41.40;;;;;;5097184;28;20115;-70
2021/05/03 10:16:08;;;;;;;3.60;2.20;;;26.60;41.90;;;;;;5096201;28;20362;-71
2021/05/03 10:18:37;;;;;;;3.20;1.88;;;26.50;42.00;;;;;;5095283;28;20031;-71
2021/05/03 10:21:10;;;;;;;8.45;2.10;;;26.20;42.30;;;;;;5096025;28;20027;-71
2021/05/03 10:23:39;;;;;;;4.75;2.22;;;25.70;42.40;;;;;;5096994;28;20422;-71
2021/05/03 10:26:05;;;;;;;3.55;2.00;;;25.10;43.20;;;;;;5096753;28;20023;-71
2021/05/03 10:28:31;;;;;;;3.63;1.95;;;24.50;43.70;;;;;;5095194;28;20119;-71
2021/05/03 10:30:58;;;;;;;2.92;2.28;;;23.90;44.40;;;;;;5095852;28;20059;-70
2021/05/03 10:33:38;;;;;;;3.28;2.50;;;23.30;45.30;;;;;;5095270;28;20030;-71
2021/05/03 10:36:05;;;;;;;5.25;3.15;;;22.80;46.70;;;;;;5096760;28;20020;-71
2021/05/03 10:38:42;;;;;;;5.78;3.20;;;22.40;47.40;;;;;;5096094;28;20481;-71
2021/05/03 10:41:28;;;;;;;4.75;2.50;;;22.00;48.10;;;;;;5095696;28;20047;-71
2021/05/03 10:44:20;;;;;;;6.30;2.80;;;21.50;49.10;;;;;;5096816;28;20016;-71
2021/05/03 10:49:17;;;;;;;3.88;2.70;;;20.70;50.00;;;;;;5096402;28;20377;-70
2021/05/03 10:56:56;;;;;;;3.13;2.20;;;19.40;51.20;;;;;;5096407;28;20463;-71
2021/05/03 10:59:22;;;;;;;3.97;2.58;;;19.10;51.70;;;;;;5096097;28;20024;-71
2021/05/03 11:01:54;;;;;;;6.47;2.60;;;18.80;52.30;;;;;;5094775;28;20024;-71
2021/05/03 11:04:31;;;;;;;5.80;2.30;;;18.60;52.80;;;;;;5094861;28;20081;-70
2021/05/03 11:06:59;;;;;;;3.60;2.38;;;18.30;53.70;;;;;;5095022;28;20051;-72
2021/05/03 11:09:31;;;;;;;6.25;2.80;;;18.10;54.50;;;;;;5094973;28;20405;-69
2021/05/03 11:12:09;;;;;;;6.57;2.90;;;17.80;55.80;;;;;;5082501;28;20358;-73
2021/05/03 11:14:37;;;;;;;4.57;3.20;;;17.60;57.20;;;;;;5054073;28;20041;-71
2021/05/03 11:17:12;;;;;;;7.50;3.05;;;17.40;57.60;;;;;;5056217;28;20017;-71
2021/05/03 11:22:20;;;;;;;4.55;2.97;;;17.00;58.60;;;;;;5055446;28;20185;-71
2021/05/03 11:27:44;;;;;;;4.35;2.90;;;16.70;59.60;;;;;;5055729;28;20409;-71
2021/05/03 11:32:40;;;;;;;5.10;2.70;;;16.50;59.60;;;;;;5055345;28;20359;-71
2021/05/03 11:37:48;;;;;;;3.95;2.88;;;16.20;60.90;;;;;;5055489;28;20021;-70
2021/05/03 11:45:38;;;;;;;3.53;2.75;;;16.30;62.40;;;;;;5055530;28;20075;-70
2021/05/03 11:48:04;;;;;;;3.58;2.75;;;16.30;62.50;;;;;;5053892;28;20013;-71
2021/05/03 11:50:30;;;;;;;4.28;2.75;;;16.30;62.80;;;;;;5055021;28;20099;-70
2021/05/03 11:52:56;;;;;;;3.67;2.90;;;16.40;62.60;;;;;;5054863;28;20455;-71
2021/05/03 11:55:24;;;;;;;4.32;2.88;;;16.60;62.50;;;;;;5054941;28;20021;-70
2021/05/03 11:57:51;;;;;;;6.00;3.90;;;16.70;62.70;;;;;;5053370;28;20443;-70
2021/05/03 12:00:22;;;;;;;5.07;3.08;;;16.90;62.80;;;;;;5054007;28;20102;-70
2021/05/03 12:03:04;;;;;;;3.95;3.05;;;17.00;62.60;;;;;;5054321;28;20108;-71
2021/05/03 12:05:31;;;;;;;3.85;2.92;;;17.20;61.80;;;;;;5053722;28;20025;-71
2021/05/03 12:07:56;;;;;;;4.53;3.25;;;17.30;61.60;;;;;;5054494;28;20024;-70
2021/05/03 12:10:22;;;;;;;5.15;3.40;;;17.70;61.50;;;;;;5053368;28;20020;-71
2021/05/03 12:12:56;;;;;;;6.70;3.75;;;18.00;60.80;;;;;;5067724;28;20396;-70
2021/05/03 12:15:27;;;;;;;6.65;3.50;;;18.40;60.20;;;;;;5081923;28;20145;-71
2021/05/03 12:17:54;;;;;;;3.95;3.47;;;18.80;59.20;;;;;;5093466;28;20031;-71
2021/05/03 12:20:22;;;;;;;5.97;3.95;;;18.90;58.20;;;;;;5093168;28;20031;-71
2021/05/03 12:22:58;;;;;;;4.72;4.03;;;19.00;57.80;;;;;;5093089;28;20020;-70
2021/05/03 12:25:31;;;;;;;5.63;4.50;;;18.90;56.50;;;;;;5088870;28;20451;-70
2021/05/03 12:27:57;;;;;;;5.15;3.67;;;18.90;57.00;;;;;;5087222;28;20504;-70
2021/05/03 12:30:26;;;;;;;5.13;3.55;;;18.90;56.40;;;;;;5093235;28;20036;-70
2021/05/03 12:32:52;;;;;;;4.75;3.60;;;18.80;56.70;;;;;;5092612;28;20020;-70
2021/05/03 12:35:21;;;;;;;4.55;3.17;;;18.70;56.50;;;;;;5094116;28;20401;-70
2021/05/03 12:37:47;;;;;;;4.28;3.05;;;18.60;56.50;;;;;;5093473;28;20458;-70
2021/05/03 12:40:16;;;;;;;4.32;3.70;;;18.50;56.30;;;;;;5092840;28;20024;-70
2021/05/03 12:42:53;;;;;;;3.80;2.97;;;18.30;56.60;;;;;;5092728;28;20024;-70
2021/05/03 12:45:21;;;;;;;5.13;3.55;;;18.30;57.30;;;;;;5094319;28;20052;-70
2021/05/03 12:53:46;;;;;;;7.20;3.55;;;19.20;56.10;;;;;;5093886;28;20048;-71
2021/05/03 12:58:48;;;;;;;3.08;2.20;;;19.60;55.10;;;;;;5093751;28;20081;-70
2021/05/03 13:04:23;;;;;;;2.40;1.92;;;19.60;52.90;;;;;;5094056;28;20024;-70
2021/05/03 13:29:16;;;;;;;6.32;1.77;;;18.80;52.10;;;;;;5091958;28;20039;-71
2021/05/03 13:31:44;;;;;;;2.88;1.67;;;18.70;51.60;;;;;;5093151;28;20515;-70
2021/05/03 13:34:12;;;;;;;3.65;1.60;;;18.80;51.90;;;;;;5092353;28;20027;-70
2021/05/03 13:36:39;;;;;;;2.10;1.58;;;19.00;51.70;;;;;;5092104;28;20365;-70
2021/05/03 13:39:07;;;;;;;2.30;1.60;;;19.10;51.40;;;;;;5093248;28;20411;-70
2021/05/03 13:41:35;;;;;;;3.67;1.40;;;19.20;50.70;;;;;;5092082;28;20025;-71
2021/05/03 13:44:05;;;;;;;2.47;1.30;;;19.30;50.20;;;;;;5093078;28;20023;-71
2021/05/03 13:46:31;;;;;;;3.25;1.77;;;19.20;49.60;;;;;;5091968;28;20039;-71
2021/05/03 13:48:57;;;;;;;4.22;1.83;;;19.10;49.50;;;;;;5092095;28;20028;-70
2021/05/03 13:51:24;;;;;;;6.30;2.50;;;18.90;49.50;;;;;;5093303;28;20343;-70
2021/05/03 13:53:50;;;;;;;4.43;1.65;;;18.80;49.50;;;;;;5092121;28;20024;-70
2021/05/03 13:56:17;;;;;;;6.68;1.52;;;18.80;49.70;;;;;;5093013;28;20543;-70
2021/05/03 13:58:43;;;;;;;3.88;1.58;;;18.70;49.40;;;;;;5090867;28;20035;-70